sensor_id;sensor_type;location;lat;lon;timestamp;pressure;altitude;pressure_sealevel;temperature;humidity
11345;BME280;5727;42.600;23.028;2022-10-13T00:01:52;94414.41;;;9.38;100.00
11345;BME280;5727;42.600;23.028;2022-10-13T00:04:19;94417.16;;;9.33;100.00
11345;BME280;5727;42.600;23.028;2022-10-13T00:06:46;94412.22;;;9.31;100.00
11345;BME280;5727;42.600;23.028;2022-10-13T00:09:13;94409.16;;;9.29;100.00
11345;BME280;5727;42.600;23.028;2022-10-13T00:11:41;94409.72;;;9.26;100.00
11345;BME280;5727;42.600;23.028;2022-10-13T00:14:08;94408.66;;;9.27;100.00
11345;BME280;5727;42.600;23.028;2022-10-13T00:16:34;94406.38;;;9.26;100.00
11345;BME280;5727;42.600;23.028;2022-10-13T00:19:01;94404.94;;;9.19;100.00
11345;BME280;5727;42.600;23.028;2022-10-13T00:21:28;94402.91;;;9.16;100.00
11345;BME280;5727;42.600;23.028;2022-10-13T00:23:56;94400.91;;;9.13;100.00
11345;BME280;5727;42.600;23.028;2022-10-13T00:26:24;94397.50;;;9.13;100.00
11345;BME280;5727;42.600;23.028;2022-10-13T00:28:52;94388.44;;;9.10;100.00
11345;BME280;5727;42.600;23.028;2022-10-13T00:31:21;94393.66;;;9.10;100.00
11345;BME280;5727;42.600;23.028;2022-10-13T00:33:48;94393.19;;;9.08;100.00
11345;BME280;5727;42.600;23.028;2022-10-13T00:36:16;94383.16;;;9.02;100.00
11345;BME280;5727;42.600;23.028;2022-10-13T00:38:43;94397.00;;;9.02;100.00
11345;BME280;5727;42.600;23.028;2022-10-13T00:41:10;94395.13;;;9.03;100.00
11345;BME280;5727;42.600;23.028;2022-10-13T00:43:53;94391.28;;;9.00;100.00
11345;BME280;5727;42.600;23.028;2022-10-13T00:46:22;94387.91;;;9.00;100.00
11345;BME280;5727;42.600;23.028;2022-10-13T00:48:50;94380.84;;;9.00;100.00
11345;BME280;5727;42.600;23.028;2022-10-13T00:51:20;94373.31;;;8.99;100.00
11345;BME280;5727;42.600;23.028;2022-10-13T00:53:48;94371.75;;;8.98;100.00
11345;BME280;5727;42.600;23.028;2022-10-13T00:56:17;94373.88;;;8.96;100.00
11345;BME280;5727;42.600;23.028;2022-10-13T00:58:45;94372.06;;;8.96;100.00
11345;BME280;5727;42.600;23.028;2022-10-13T01:01:15;94367.88;;;8.95;100.00
11345;BME280;5727;42.600;23.028;2022-10-13T01:03:42;94365.25;;;8.95;100.00
11345;BME280;5727;42.600;23.028;2022-10-13T01:06:09;94367.88;;;8.95;100.00
11345;BME280;5727;42.600;23.028;2022-10-13T01:08:37;94364.22;;;8.96;100.00
11345;BME280;5727;42.600;23.028;2022-10-13T01:11:23;94370.00;;;8.93;100.00
11345;BME280;5727;42.600;23.028;2022-10-13T01:14:00;94364.78;;;8.93;100.00
11345;BME280;5727;42.600;23.028;2022-10-13T01:16:33;94372.63;;;8.93;100.00
11345;BME280;5727;42.600;23.028;2022-10-13T01:19:27;94365.09;;;8.92;100.00
11345;BME280;5727;42.600;23.028;2022-10-13T01:22:08;94373.72;;;8.92;100.00
11345;BME280;5727;42.600;23.028;2022-10-13T01:24:45;94367.72;;;8.92;100.00
11345;BME280;5727;42.600;23.028;2022-10-13T01:27:37;94375.38;;;8.88;100.00
11345;BME280;5727;42.600;23.028;2022-10-13T01:30:11;94373.06;;;8.87;100.00
11345;BME280;5727;42.600;23.028;2022-10-13T01:32:52;94370.56;;;8.82;100.00
11345;BME280;5727;42.600;23.028;2022-10-13T01:35:30;94379.19;;;8.82;100.00
11345;BME280;5727;42.600;23.028;2022-10-13T01:38:04;94378.41;;;8.82;100.00
11345;BME280;5727;42.600;23.028;2022-10-13T01:40:38;94377.16;;;8.79;100.00
11345;BME280;5727;42.600;23.028;2022-10-13T01:43:10;94382.88;;;8.81;100.00
11345;BME280;5727;42.600;23.028;2022-10-13T01:45:41;94370.88;;;8.80;100.00
11345;BME280;5727;42.600;23.028;2022-10-13T01:48:10;94377.16;;;8.79;100.00
11345;BME280;5727;42.600;23.028;2022-10-13T01:50:38;94377.16;;;8.79;100.00
11345;BME280;5727;42.600;23.028;2022-10-13T01:53:06;94377.00;;;8.76;100.00
11345;BME280;5727;42.600;23.028;2022-10-13T01:55:34;94372.66;;;8.71;100.00
11345;BME280;5727;42.600;23.028;2022-10-13T01:58:00;94374.97;;;8.73;100.00
11345;BME280;5727;42.600;23.028;2022-10-13T02:00:31;94373.13;;;8.73;100.00
11345;BME280;5727;42.600;23.028;2022-10-13T02:03:13;94365.88;;;8.70;100.00
11345;BME280;5727;42.600;23.028;2022-10-13T02:05:45;94369.75;;;8.73;100.00
11345;BME280;5727;42.600;23.028;2022-10-13T02:08:21;94367.44;;;8.71;100.00
11345;BME280;5727;42.600;23.028;2022-10-13T02:10:55;94366.94;;;8.69;100.00
11345;BME280;5727;42.600;23.028;2022-10-13T02:13:27;94361.25;;;8.67;100.00
11345;BME280;5727;42.600;23.028;2022-10-13T02:15:58;94359.72;;;8.66;100.00
11345;BME280;5727;42.600;23.028;2022-10-13T02:18:31;94356.63;;;8.64;100.00
11345;BME280;5727;42.600;23.028;2022-10-13T02:20:59;94351.22;;;8.61;100.00
11345;BME280;5727;42.600;23.028;2022-10-13T02:23:27;94354.91;;;8.60;100.00
11345;BME280;5727;42.600;23.028;2022-10-13T02:25:54;94354.13;;;8.59;100.00
11345;BME280;5727;42.600;23.028;2022-10-13T02:28:22;94350.28;;;8.57;100.00
11345;BME280;5727;42.600;23.028;2022-10-13T02:30:49;94349.13;;;8.49;100.00
11345;BME280;5727;42.600;23.028;2022-10-13T02:33:16;94349.34;;;8.53;100.00
11345;BME280;5727;42.600;23.028;2022-10-13T02:35:44;94347.00;;;8.51;100.00
11345;BME280;5727;42.600;23.028;2022-10-13T02:38:11;94344.38;;;8.51;100.00
11345;BME280;5727;42.600;23.028;2022-10-13T02:40:38;94336.53;;;8.51;100.00
11345;BME280;5727;42.600;23.028;2022-10-13T02:43:05;94333.19;;;8.51;100.00
11345;BME280;5727;42.600;23.028;2022-10-13T02:45:31;94337.94;;;8.49;100.00
11345;BME280;5727;42.600;23.028;2022-10-13T02:47:58;94337.63;;;8.50;100.00
11345;BME280;5727;42.600;23.028;2022-10-13T02:50:25;94331.94;;;8.48;100.00
11345;BME280;5727;42.600;23.028;2022-10-13T02:52:54;94330.09;;;8.49;100.00
11345;BME280;5727;42.600;23.028;2022-10-13T02:55:20;94326.69;;;8.48;100.00
11345;BME280;5727;42.600;23.028;2022-10-13T02:57:47;94329.31;;;8.48;100.00
11345;BME280;5727;42.600;23.028;2022-10-13T03:00:15;94330.84;;;8.49;100.00
11345;BME280;5727;42.600;23.028;2022-10-13T03:02:42;94334.53;;;8.48;100.00
11345;BME280;5727;42.600;23.028;2022-10-13T03:05:09;94328.38;;;8.44;100.00
11345;BME280;5727;42.600;23.028;2022-10-13T03:07:36;94327.09;;;8.42;100.00
11345;BME280;5727;42.600;23.028;2022-10-13T03:10:05;94328.50;;;8.39;100.00
11345;BME280;5727;42.600;23.028;2022-10-13T03:12:32;94332.31;;;8.42;100.00
11345;BME280;5727;42.600;23.028;2022-10-13T03:14:59;94327.88;;;8.42;100.00
11345;BME280;5727;42.600;23.028;2022-10-13T03:17:26;94331.09;;;8.39;100.00
11345;BME280;5727;42.600;23.028;2022-10-13T03:19:52;94335.72;;;8.42;100.00
11345;BME280;5727;42.600;23.028;2022-10-13T03:22:19;94336.66;;;8.46;100.00
11345;BME280;5727;42.600;23.028;2022-10-13T03:24:46;94346.06;;;8.47;100.00
11345;BME280;5727;42.600;23.028;2022-10-13T03:27:14;94342.38;;;8.48;100.00
11345;BME280;5727;42.600;23.028;2022-10-13T03:29:41;94347.59;;;8.48;100.00
11345;BME280;5727;42.600;23.028;2022-10-13T03:32:07;94338.69;;;8.49;100.00
11345;BME280;5727;42.600;23.028;2022-10-13T03:34:34;94333.47;;;8.49;100.00
11345;BME280;5727;42.600;23.028;2022-10-13T03:37:01;94337.94;;;8.49;100.00
11345;BME280;5727;42.600;23.028;2022-10-13T03:39:28;94341.75;;;8.51;100.00
11345;BME280;5727;42.600;23.028;2022-10-13T03:41:54;94338.09;;;8.52;100.00
11345;BME280;5727;42.600;23.028;2022-10-13T03:44:23;94338.69;;;8.49;100.00
11345;BME280;5727;42.600;23.028;2022-10-13T03:46:49;94340.72;;;8.52;100.00
11345;BME280;5727;42.600;23.028;2022-10-13T03:49:16;94345.47;;;8.50;100.00
11345;BME280;5727;42.600;23.028;2022-10-13T03:51:44;94337.44;;;8.47;100.00
11345;BME280;5727;42.600;23.028;2022-10-13T03:54:12;94345.47;;;8.50;100.00
11345;BME280;5727;42.600;23.028;2022-10-13T03:56:39;94350.22;;;8.48;100.00
11345;BME280;5727;42.600;23.028;2022-10-13T03:59:06;94348.69;;;8.47;100.00
11345;BME280;5727;42.600;23.028;2022-10-13T04:01:36;94348.06;;;8.50;100.00
11345;BME280;5727;42.600;23.028;2022-10-13T04:04:03;94347.00;;;8.51;100.00
11345;BME280;5727;42.600;23.028;2022-10-13T04:06:30;94342.25;;;8.53;100.00
11345;BME280;5727;42.600;23.028;2022-10-13T04:08:57;94338.88;;;8.53;100.00
11345;BME280;5727;42.600;23.028;2022-10-13T04:11:24;94330.75;;;8.54;100.00
11345;BME280;5727;42.600;23.028;2022-10-13T04:13:51;94333.06;;;8.56;100.00
11345;BME280;5727;42.600;23.028;2022-10-13T04:16:20;94337.50;;;8.55;100.00
11345;BME280;5727;42.600;23.028;2022-10-13T04:18:51;94344.59;;;8.55;100.00
11345;BME280;5727;42.600;23.028;2022-10-13T04:21:18;94332.00;;;8.57;100.00
11345;BME280;5727;42.600;23.028;2022-10-13T04:23:45;94338.44;;;8.59;100.00
11345;BME280;5727;42.600;23.028;2022-10-13T04:26:16;94336.91;;;8.58;100.00
11345;BME280;5727;42.600;23.028;2022-10-13T04:28:43;94334.47;;;8.62;100.00
11345;BME280;5727;42.600;23.028;2022-10-13T04:31:10;94337.75;;;8.67;100.00
11345;BME280;5727;42.600;23.028;2022-10-13T04:33:37;94329.78;;;8.72;100.00
11345;BME280;5727;42.600;23.028;2022-10-13T04:36:07;94330.44;;;8.78;100.00
11345;BME280;5727;42.600;23.028;2022-10-13T04:38:34;94329.66;;;8.77;100.00
11345;BME280;5727;42.600;23.028;2022-10-13T04:41:02;94322.59;;;8.78;100.00
11345;BME280;5727;42.600;23.028;2022-10-13T04:43:29;94331.56;;;8.85;100.00
11345;BME280;5727;42.600;23.028;2022-10-13T04:45:59;94321.44;;;8.92;100.00
11345;BME280;5727;42.600;23.028;2022-10-13T04:48:26;94323.75;;;8.94;100.00
11345;BME280;5727;42.600;23.028;2022-10-13T04:50:58;94325.91;;;8.92;100.00
11345;BME280;5727;42.600;23.028;2022-10-13T04:53:26;94331.91;;;8.92;100.00
11345;BME280;5727;42.600;23.028;2022-10-13T04:55:54;94336.03;;;8.93;100.00
11345;BME280;5727;42.600;23.028;2022-10-13T04:58:21;94341.75;;;8.95;100.00
11345;BME280;5727;42.600;23.028;2022-10-13T05:00:48;94339.03;;;9.00;100.00
11345;BME280;5727;42.600;23.028;2022-10-13T05:03:15;94338.84;;;8.97;100.00
11345;BME280;5727;42.600;23.028;2022-10-13T05:05:42;94334.38;;;8.97;100.00
11345;BME280;5727;42.600;23.028;2022-10-13T05:08:08;94339.50;;;9.02;100.00
11345;BME280;5727;42.600;23.028;2022-10-13T05:10:37;94343.53;;;9.08;100.00
11345;BME280;5727;42.600;23.028;2022-10-13T05:13:03;94353.38;;;9.11;100.00
11345;BME280;5727;42.600;23.028;2022-10-13T05:15:30;94353.91;;;9.22;100.00
11345;BME280;5727;42.600;23.028;2022-10-13T05:17:57;94349.91;;;9.24;100.00
11345;BME280;5727;42.600;23.028;2022-10-13T05:20:24;94353.44;;;9.29;100.00
11345;BME280;5727;42.600;23.028;2022-10-13T05:22:51;94348.88;;;9.34;100.00
11345;BME280;5727;42.600;23.028;2022-10-13T05:25:18;94360.25;;;9.38;100.00
11345;BME280;5727;42.600;23.028;2022-10-13T05:27:46;94355.56;;;9.49;100.00
11345;BME280;5727;42.600;23.028;2022-10-13T05:30:13;94360.63;;;9.54;100.00
11345;BME280;5727;42.600;23.028;2022-10-13T05:32:40;94364.78;;;9.55;100.00
11345;BME280;5727;42.600;23.028;2022-10-13T05:35:07;94359.69;;;9.50;100.00
11345;BME280;5727;42.600;23.028;2022-10-13T05:37:34;94369.44;;;9.58;100.00
11345;BME280;5727;42.600;23.028;2022-10-13T05:40:01;94366.97;;;9.53;100.00
11345;BME280;5727;42.600;23.028;2022-10-13T05:42:28;94369.91;;;9.60;100.00
11345;BME280;5727;42.600;23.028;2022-10-13T05:44:57;94367.44;;;9.63;100.00
11345;BME280;5727;42.600;23.028;2022-10-13T05:47:23;94369.00;;;9.64;100.00
11345;BME280;5727;42.600;23.028;2022-10-13T05:49:52;94378.06;;;9.67;100.00
11345;BME280;5727;42.600;23.028;2022-10-13T05:52:20;94374.25;;;9.73;100.00
11345;BME280;5727;42.600;23.028;2022-10-13T05:54:52;94375.81;;;9.82;100.00
11345;BME280;5727;42.600;23.028;2022-10-13T05:57:22;94375.97;;;9.86;100.00
11345;BME280;5727;42.600;23.028;2022-10-13T05:59:51;94379.41;;;9.95;100.00
11345;BME280;5727;42.600;23.028;2022-10-13T06:02:22;94376.16;;;9.98;100.00
11345;BME280;5727;42.600;23.028;2022-10-13T06:04:55;94376.47;;;10.05;100.00
11345;BME280;5727;42.600;23.028;2022-10-13T06:07:22;94369.41;;;10.05;100.00
11345;BME280;5727;42.600;23.028;2022-10-13T06:09:50;94378.38;;;10.13;100.00
11345;BME280;5727;42.600;23.028;2022-10-13T06:12:17;94371.13;;;10.19;100.00
11345;BME280;5727;42.600;23.028;2022-10-13T06:14:43;94379.56;;;10.07;100.00
11345;BME280;5727;42.600;23.028;2022-10-13T06:17:10;94375.28;;;10.11;100.00
11345;BME280;5727;42.600;23.028;2022-10-13T06:19:39;94377.31;;;10.14;100.00
11345;BME280;5727;42.600;23.028;2022-10-13T06:22:06;94374.69;;;10.23;100.00
11345;BME280;5727;42.600;23.028;2022-10-13T06:24:33;94375.47;;;10.32;100.00
11345;BME280;5727;42.600;23.028;2022-10-13T06:27:00;94376.72;;;10.34;100.00
11345;BME280;5727;42.600;23.028;2022-10-13T06:29:26;94387.97;;;10.35;100.00
11345;BME280;5727;42.600;23.028;2022-10-13T06:31:53;94385.97;;;10.40;100.00
11345;BME280;5727;42.600;23.028;2022-10-13T06:34:20;94375.19;;;10.50;100.00
11345;BME280;5727;42.600;23.028;2022-10-13T06:36:48;94379.66;;;10.58;100.00
11345;BME280;5727;42.600;23.028;2022-10-13T06:39:15;94376.25;;;10.66;100.00
11345;BME280;5727;42.600;23.028;2022-10-13T06:41:42;94370.22;;;10.74;100.00
11345;BME280;5727;42.600;23.028;2022-10-13T06:44:09;94372.56;;;10.67;100.00
11345;BME280;5727;42.600;23.028;2022-10-13T06:46:37;94380.13;;;10.77;100.00
11345;BME280;5727;42.600;23.028;2022-10-13T06:49:03;94388.59;;;10.83;100.00
11345;BME280;5727;42.600;23.028;2022-10-13T06:51:30;94385.03;;;10.87;100.00
11345;BME280;5727;42.600;23.028;2022-10-13T06:53:59;94381.63;;;10.95;100.00
11345;BME280;5727;42.600;23.028;2022-10-13T06:56:25;94378.84;;;11.00;100.00
11345;BME280;5727;42.600;23.028;2022-10-13T06:58:52;94371.09;;;11.13;100.00
11345;BME280;5727;42.600;23.028;2022-10-13T07:01:19;94383.56;;;11.24;100.00
11345;BME280;5727;42.600;23.028;2022-10-13T07:03:47;94384.16;;;11.38;100.00
11345;BME280;5727;42.600;23.028;2022-10-13T07:06:15;94375.00;;;11.53;100.00
11345;BME280;5727;42.600;23.028;2022-10-13T07:08:42;94376.81;;;11.61;100.00
11345;BME280;5727;42.600;23.028;2022-10-13T07:11:13;94381.16;;;11.65;100.00
11345;BME280;5727;42.600;23.028;2022-10-13T07:13:42;94380.19;;;11.70;100.00
11345;BME280;5727;42.600;23.028;2022-10-13T07:16:09;94376.16;;;11.81;100.00
11345;BME280;5727;42.600;23.028;2022-10-13T07:18:36;94376.25;;;11.93;100.00
11345;BME280;5727;42.600;23.028;2022-10-13T07:21:03;94381.72;;;12.09;100.00
11345;BME280;5727;42.600;23.028;2022-10-13T07:23:31;94387.56;;;12.14;100.00
11345;BME280;5727;42.600;23.028;2022-10-13T07:25:57;94382.13;;;12.19;100.00
11345;BME280;5727;42.600;23.028;2022-10-13T07:28:27;94374.34;;;12.31;100.00
11345;BME280;5727;42.600;23.028;2022-10-13T07:30:54;94381.38;;;12.39;100.00
11345;BME280;5727;42.600;23.028;2022-10-13T07:33:21;94373.75;;;12.46;100.00
11345;BME280;5727;42.600;23.028;2022-10-13T07:35:48;94377.78;;;12.64;100.00
11345;BME280;5727;42.600;23.028;2022-10-13T07:38:14;94369.66;;;12.57;100.00
11345;BME280;5727;42.600;23.028;2022-10-13T07:40:41;94380.28;;;12.81;100.00
11345;BME280;5727;42.600;23.028;2022-10-13T07:43:08;94369.94;;;12.97;100.00
11345;BME280;5727;42.600;23.028;2022-10-13T07:45:36;94383.03;;;13.06;100.00
11345;BME280;5727;42.600;23.028;2022-10-13T07:48:03;94377.97;;;12.80;100.00
11345;BME280;5727;42.600;23.028;2022-10-13T07:50:30;94385.75;;;12.76;100.00
11345;BME280;5727;42.600;23.028;2022-10-13T07:52:57;94381.00;;;12.91;100.00
11345;BME280;5727;42.600;23.028;2022-10-13T07:55:24;94379.25;;;13.15;100.00
11345;BME280;5727;42.600;23.028;2022-10-13T07:57:51;94372.47;;;13.26;100.00
11345;BME280;5727;42.600;23.028;2022-10-13T08:00:18;94371.44;;;13.51;100.00
11345;BME280;5727;42.600;23.028;2022-10-13T08:02:49;94363.66;;;13.67;100.00
11345;BME280;5727;42.600;23.028;2022-10-13T08:05:16;94359.03;;;13.76;100.00
11345;BME280;5727;42.600;23.028;2022-10-13T08:07:43;94359.47;;;13.54;100.00
11345;BME280;5727;42.600;23.028;2022-10-13T08:10:10;94365.63;;;13.70;100.00
11345;BME280;5727;42.600;23.028;2022-10-13T08:12:38;94366.09;;;13.96;100.00
11345;BME280;5727;42.600;23.028;2022-10-13T08:15:05;94352.34;;;14.15;100.00
11345;BME280;5727;42.600;23.028;2022-10-13T08:17:32;94365.72;;;14.34;100.00
11345;BME280;5727;42.600;23.028;2022-10-13T08:20:00;94358.34;;;14.51;100.00
11345;BME280;5727;42.600;23.028;2022-10-13T08:22:27;94363.00;;;14.70;100.00
11345;BME280;5727;42.600;23.028;2022-10-13T08:24:54;94359.34;;;14.87;100.00
11345;BME280;5727;42.600;23.028;2022-10-13T08:27:23;94362.66;;;14.72;100.00
11345;BME280;5727;42.600;23.028;2022-10-13T08:29:50;94353.38;;;14.90;100.00
11345;BME280;5727;42.600;23.028;2022-10-13T08:32:19;94353.50;;;15.09;100.00
11345;BME280;5727;42.600;23.028;2022-10-13T08:34:46;94355.19;;;15.29;100.00
11345;BME280;5727;42.600;23.028;2022-10-13T08:37:14;94352.25;;;15.46;100.00
11345;BME280;5727;42.600;23.028;2022-10-13T08:39:42;94351.91;;;15.47;100.00
11345;BME280;5727;42.600;23.028;2022-10-13T08:42:13;94355.78;;;15.38;100.00
11345;BME280;5727;42.600;23.028;2022-10-13T08:44:45;94350.41;;;15.34;100.00
11345;BME280;5727;42.600;23.028;2022-10-13T08:47:19;94345.75;;;15.43;100.00
11345;BME280;5727;42.600;23.028;2022-10-13T08:49:49;94350.03;;;15.48;100.00
11345;BME280;5727;42.600;23.028;2022-10-13T08:52:19;94335.09;;;15.40;100.00
11345;BME280;5727;42.600;23.028;2022-10-13T08:54:47;94332.22;;;15.45;100.00
11345;BME280;5727;42.600;23.028;2022-10-13T08:57:15;94334.00;;;15.56;100.00
11345;BME280;5727;42.600;23.028;2022-10-13T08:59:41;94330.53;;;15.68;100.00
11345;BME280;5727;42.600;23.028;2022-10-13T09:02:11;94335.13;;;15.71;100.00
11345;BME280;5727;42.600;23.028;2022-10-13T09:04:39;94330.69;;;15.75;100.00
11345;BME280;5727;42.600;23.028;2022-10-13T09:07:11;94324.13;;;15.85;100.00
11345;BME280;5727;42.600;23.028;2022-10-13T09:09:41;94317.63;;;15.98;100.00
11345;BME280;5727;42.600;23.028;2022-10-13T09:12:09;94325.59;;;16.17;100.00
11345;BME280;5727;42.600;23.028;2022-10-13T09:14:37;94328.22;;;16.32;100.00
11345;BME280;5727;42.600;23.028;2022-10-13T09:17:16;94321.84;;;16.53;100.00
11345;BME280;5727;42.600;23.028;2022-10-13T09:19:44;94321.50;;;16.54;100.00
11345;BME280;5727;42.600;23.028;2022-10-13T09:22:18;94318.44;;;16.52;100.00
11345;BME280;5727;42.600;23.028;2022-10-13T09:25:03;94315.31;;;16.66;100.00
11345;BME280;5727;42.600;23.028;2022-10-13T09:27:40;94315.59;;;16.80;100.00
11345;BME280;5727;42.600;23.028;2022-10-13T09:30:25;94311.91;;;16.84;100.00
11345;BME280;5727;42.600;23.028;2022-10-13T09:32:59;94314.88;;;17.02;100.00
11345;BME280;5727;42.600;23.028;2022-10-13T09:35:30;94308.38;;;17.18;100.00
11345;BME280;5727;42.600;23.028;2022-10-13T09:38:03;94308.00;;;17.20;91.00
11345;BME280;5727;42.600;23.028;2022-10-13T09:40:32;94302.66;;;17.16;86.57
11345;BME280;5727;42.600;23.028;2022-10-13T09:43:00;94304.28;;;17.44;88.10
11345;BME280;5727;42.600;23.028;2022-10-13T09:45:27;94295.97;;;17.45;86.87
11345;BME280;5727;42.600;23.028;2022-10-13T09:47:58;94295.81;;;17.57;84.36
11345;BME280;5727;42.600;23.028;2022-10-13T09:50:29;94300.94;;;17.69;84.22
11345;BME280;5727;42.600;23.028;2022-10-13T09:53:14;94303.78;;;17.83;83.43
11345;BME280;5727;42.600;23.028;2022-10-13T09:55:44;94295.97;;;17.90;84.77
11345;BME280;5727;42.600;23.028;2022-10-13T09:58:17;94300.28;;;17.76;82.32
11345;BME280;5727;42.600;23.028;2022-10-13T10:00:48;94294.59;;;17.77;83.94
11345;BME280;5727;42.600;23.028;2022-10-13T10:03:18;94287.38;;;18.00;83.00
11345;BME280;5727;42.600;23.028;2022-10-13T10:05:50;94289.22;;;18.22;83.08
11345;BME280;5727;42.600;23.028;2022-10-13T10:08:22;94285.72;;;18.15;83.72
11345;BME280;5727;42.600;23.028;2022-10-13T10:10:53;94277.28;;;18.39;82.46
11345;BME280;5727;42.600;23.028;2022-10-13T10:13:21;94268.28;;;18.44;84.08
11345;BME280;5727;42.600;23.028;2022-10-13T10:15:53;94264.25;;;18.53;82.53
11345;BME280;5727;42.600;23.028;2022-10-13T10:18:28;94272.13;;;18.20;83.39
11345;BME280;5727;42.600;23.028;2022-10-13T10:21:04;94266.69;;;18.39;83.81
11345;BME280;5727;42.600;23.028;2022-10-13T10:23:42;94265.31;;;18.49;81.68
11345;BME280;5727;42.600;23.028;2022-10-13T10:26:16;94255.31;;;18.39;82.58
11345;BME280;5727;42.600;23.028;2022-10-13T10:29:06;94261.00;;;18.67;81.43
11345;BME280;5727;42.600;23.028;2022-10-13T10:31:49;94259.78;;;18.94;82.29
11345;BME280;5727;42.600;23.028;2022-10-13T10:34:27;94249.75;;;19.17;79.87
11345;BME280;5727;42.600;23.028;2022-10-13T10:37:05;94245.06;;;19.03;78.90
11345;BME280;5727;42.600;23.028;2022-10-13T10:39:45;94240.19;;;19.09;78.32
11345;BME280;5727;42.600;23.028;2022-10-13T10:42:23;94227.56;;;19.39;77.01
11345;BME280;5727;42.600;23.028;2022-10-13T10:45:00;94235.16;;;19.41;76.83
11345;BME280;5727;42.600;23.028;2022-10-13T10:47:36;94225.25;;;19.34;77.37
11345;BME280;5727;42.600;23.028;2022-10-13T10:50:06;94231.84;;;19.51;77.85
11345;BME280;5727;42.600;23.028;2022-10-13T10:52:42;94227.63;;;19.46;77.72
11345;BME280;5727;42.600;23.028;2022-10-13T10:55:17;94217.88;;;19.17;78.19
11345;BME280;5727;42.600;23.028;2022-10-13T10:57:52;94219.13;;;18.90;80.02
11345;BME280;5727;42.600;23.028;2022-10-13T11:00:22;94211.03;;;18.76;80.91
11345;BME280;5727;42.600;23.028;2022-10-13T11:02:56;94210.88;;;18.62;81.14
11345;BME280;5727;42.600;23.028;2022-10-13T11:05:30;94209.25;;;18.90;80.00
11345;BME280;5727;42.600;23.028;2022-10-13T11:08:26;94209.13;;;18.73;81.03
11345;BME280;5727;42.600;23.028;2022-10-13T11:13:59;94197.56;;;18.58;81.66
11345;BME280;5727;42.600;23.028;2022-10-13T11:16:30;94197.34;;;18.74;80.54
11345;BME280;5727;42.600;23.028;2022-10-13T11:19:00;94199.19;;;18.70;80.33
11345;BME280;5727;42.600;23.028;2022-10-13T11:22:11;94193.66;;;18.49;80.54
11345;BME280;5727;42.600;23.028;2022-10-13T11:27:44;94173.66;;;18.55;79.66
11345;BME280;5727;42.600;23.028;2022-10-13T11:30:44;94178.38;;;18.72;80.17
11345;BME280;5727;42.600;23.028;2022-10-13T11:33:44;94172.13;;;18.54;81.70
11345;BME280;5727;42.600;23.028;2022-10-13T11:42:38;94172.81;;;18.84;79.95
11345;BME280;5727;42.600;23.028;2022-10-13T11:45:18;94165.13;;;18.75;80.00
11345;BME280;5727;42.600;23.028;2022-10-13T11:48:11;94163.31;;;18.83;80.07
11345;BME280;5727;42.600;23.028;2022-10-13T11:50:47;94158.03;;;18.86;78.59
11345;BME280;5727;42.600;23.028;2022-10-13T11:53:21;94156.50;;;18.85;79.07
11345;BME280;5727;42.600;23.028;2022-10-13T11:55:50;94151.22;;;18.89;78.13
11345;BME280;5727;42.600;23.028;2022-10-13T11:58:19;94146.75;;;19.00;79.44
11345;BME280;5727;42.600;23.028;2022-10-13T12:00:51;94145.63;;;19.48;77.03
11345;BME280;5727;42.600;23.028;2022-10-13T12:03:22;94145.94;;;20.01;76.51
11345;BME280;5727;42.600;23.028;2022-10-13T12:05:50;94147.22;;;20.32;70.81
11345;BME280;5727;42.600;23.028;2022-10-13T12:08:18;94138.94;;;20.82;67.19
11345;BME280;5727;42.600;23.028;2022-10-13T12:10:48;94128.72;;;21.30;64.74
11345;BME280;5727;42.600;23.028;2022-10-13T12:13:22;94131.41;;;21.30;64.88
11345;BME280;5727;42.600;23.028;2022-10-13T12:15:56;94129.81;;;20.87;65.06
11345;BME280;5727;42.600;23.028;2022-10-13T12:18:27;94134.31;;;20.44;67.78
11345;BME280;5727;42.600;23.028;2022-10-13T12:20:59;94129.31;;;20.29;67.96
11345;BME280;5727;42.600;23.028;2022-10-13T12:23:27;94127.72;;;20.10;68.49
11345;BME280;5727;42.600;23.028;2022-10-13T12:25:55;94125.91;;;20.28;68.96
11345;BME280;5727;42.600;23.028;2022-10-13T12:28:24;94132.41;;;20.38;67.71
11345;BME280;5727;42.600;23.028;2022-10-13T12:30:52;94122.53;;;20.45;68.05
11345;BME280;5727;42.600;23.028;2022-10-13T12:33:25;94121.75;;;20.38;67.28
11345;BME280;5727;42.600;23.028;2022-10-13T12:35:53;94106.59;;;20.59;65.37
11345;BME280;5727;42.600;23.028;2022-10-13T12:38:21;94110.41;;;20.76;65.13
11345;BME280;5727;42.600;23.028;2022-10-13T12:40:50;94115.38;;;20.67;65.13
11345;BME280;5727;42.600;23.028;2022-10-13T12:43:19;94102.47;;;21.04;65.79
11345;BME280;5727;42.600;23.028;2022-10-13T12:45:48;94099.81;;;21.11;62.99
11345;BME280;5727;42.600;23.028;2022-10-13T12:48:28;94101.28;;;21.51;64.71
11345;BME280;5727;42.600;23.028;2022-10-13T12:51:13;94103.50;;;21.73;62.00
11345;BME280;5727;42.600;23.028;2022-10-13T12:53:41;94104.22;;;21.99;60.94
11345;BME280;5727;42.600;23.028;2022-10-13T12:56:21;94099.38;;;22.48;60.71
11345;BME280;5727;42.600;23.028;2022-10-13T12:58:50;94088.38;;;22.98;58.46
11345;BME280;5727;42.600;23.028;2022-10-13T13:01:26;94087.22;;;23.84;53.03
11345;BME280;5727;42.600;23.028;2022-10-13T13:03:56;94085.50;;;24.87;49.24
11345;BME280;5727;42.600;23.028;2022-10-13T13:06:31;94085.66;;;24.77;48.20
11345;BME280;5727;42.600;23.028;2022-10-13T13:09:24;94084.47;;;25.04;48.72
11345;BME280;5727;42.600;23.028;2022-10-13T13:12:12;94087.56;;;25.26;47.81
11345;BME280;5727;42.600;23.028;2022-10-13T13:14:45;94086.81;;;25.02;47.25
11345;BME280;5727;42.600;23.028;2022-10-13T13:17:19;94083.34;;;24.79;47.53
11345;BME280;5727;42.600;23.028;2022-10-13T13:19:49;94082.19;;;24.49;48.23
11345;BME280;5727;42.600;23.028;2022-10-13T13:22:17;94088.47;;;24.39;48.22
11345;BME280;5727;42.600;23.028;2022-10-13T13:24:44;94080.63;;;23.92;49.32
11345;BME280;5727;42.600;23.028;2022-10-13T13:27:21;94079.97;;;23.81;50.19